Time;durP1;ratioP1;P1;durP2;ratioP2;P2;SDS_P1;SDS_P2;PMS_P1;PMS_P2;Temp;Humidity;BMP_temperature;BMP_pressure;BME280_temperature;BME280_humidity;BME280_pressure;Samples;Min_cycle;Max_cycle;Signal;HPM_P1;HPM_P2
2022/12/28 00:01:27;;;;;;;28.52;7.78;;;28.50;81.20;;;;;;5123967;28;20028;-55
2022/12/28 00:03:54;;;;;;;27.15;8.02;;;28.50;80.90;;;;;;5124535;28;20042;-55
2022/12/28 00:06:22;;;;;;;23.27;7.25;;;28.50;80.80;;;;;;5124033;28;20031;-56
2022/12/28 00:08:52;;;;;;;25.23;7.07;;;28.50;80.70;;;;;;5123619;28;20030;-57
2022/12/28 00:11:21;;;;;;;20.20;6.55;;;28.50;81.20;;;;;;5123855;28;20035;-56
2022/12/28 00:13:47;;;;;;;24.10;6.65;;;28.50;80.90;;;;;;5124386;28;20038;-55
2022/12/28 00:16:27;;;;;;;27.92;6.82;;;28.40;80.60;;;;;;5123748;28;20020;-55
2022/12/28 00:18:56;;;;;;;21.63;5.57;;;28.40;80.60;;;;;;5124236;28;20137;-59
2022/12/28 00:21:23;;;;;;;17.52;5.97;;;28.40;80.40;;;;;;5123811;28;20042;-57
2022/12/28 00:23:54;;;;;;;17.83;5.35;;;28.40;80.30;;;;;;5124385;28;20027;-54
2022/12/28 00:26:21;;;;;;;23.85;5.88;;;28.40;80.70;;;;;;5123954;28;20307;-56
2022/12/28 00:28:48;;;;;;;21.35;6.25;;;28.40;80.30;;;;;;5123993;28;20035;-57
2022/12/28 00:31:18;;;;;;;33.80;6.82;;;28.30;80.10;;;;;;5123648;28;20185;-58
2022/12/28 00:33:45;;;;;;;25.40;6.00;;;28.30;80.50;;;;;;5124238;28;20239;-58
2022/12/28 00:36:13;;;;;;;26.48;5.93;;;28.30;80.10;;;;;;5102895;28;20063;-54
2022/12/28 00:38:40;;;;;;;23.10;5.70;;;28.00;80.60;;;;;;5085779;28;20047;-58
2022/12/28 00:41:07;;;;;;;16.42;5.32;;;27.70;81.40;;;;;;5090289;28;20069;-57
2022/12/28 00:43:34;;;;;;;25.70;6.32;;;27.50;82.00;;;;;;5094136;28;20024;-59
2022/12/28 00:46:00;;;;;;;20.20;6.38;;;27.30;82.60;;;;;;5105418;28;20062;-59
2022/12/28 00:48:27;;;;;;;18.98;5.55;;;27.10;82.90;;;;;;5100156;28;20039;-59
2022/12/28 00:51:02;;;;;;;22.70;6.50;;;27.10;83.10;;;;;;5086226;28;20051;-61
2022/12/28 00:53:28;;;;;;;22.45;7.28;;;26.90;83.30;;;;;;5086440;28;20143;-57
2022/12/28 00:56:05;;;;;;;27.30;10.48;;;26.90;83.70;;;;;;5086418;28;20386;-61
2022/12/28 00:58:32;;;;;;;32.72;11.95;;;26.80;83.60;;;;;;5117349;28;20249;-54
2022/12/28 01:00:59;;;;;;;29.65;10.55;;;26.80;83.80;;;;;;5119870;28;20078;-55
2022/12/28 01:03:25;;;;;;;26.08;9.90;;;26.90;83.60;;;;;;5123610;28;20027;-56
2022/12/28 01:05:52;;;;;;;28.27;9.40;;;27.00;83.30;;;;;;5126348;28;20038;-55
2022/12/28 01:08:18;;;;;;;19.63;7.95;;;27.10;82.80;;;;;;5125899;28;20060;-56
2022/12/28 01:10:45;;;;;;;23.98;8.02;;;27.30;82.30;;;;;;5127126;28;20063;-55
2022/12/28 01:13:11;;;;;;;25.20;7.57;;;27.30;81.90;;;;;;5126202;28;20035;-53
2022/12/28 01:15:38;;;;;;;37.70;8.02;;;27.40;81.60;;;;;;5126748;28;20036;-55
2022/12/28 01:18:05;;;;;;;31.27;6.47;;;27.50;81.30;;;;;;5127082;28;20201;-54
2022/12/28 01:20:31;;;;;;;20.05;6.93;;;27.50;81.00;;;;;;5126958;28;20057;-55
2022/12/28 01:22:58;;;;;;;28.10;7.15;;;27.60;80.80;;;;;;5127029;28;20042;-56
2022/12/28 01:25:24;;;;;;;24.27;6.35;;;27.60;80.70;;;;;;5125657;28;20307;-53
2022/12/28 01:27:51;;;;;;;22.35;6.57;;;27.70;80.50;;;;;;5125127;28;20327;-51
2022/12/28 01:30:17;;;;;;;17.20;5.97;;;27.70;80.20;;;;;;5124930;28;20081;-52
2022/12/28 01:32:44;;;;;;;23.10;6.28;;;27.70;80.10;;;;;;5125105;28;20080;-53
2022/12/28 01:35:11;;;;;;;23.20;6.10;;;27.70;80.00;;;;;;5124652;28;20026;-53
2022/12/28 01:37:37;;;;;;;21.98;6.00;;;27.70;80.00;;;;;;5125141;28;20134;-53
2022/12/28 01:40:04;;;;;;;20.33;6.40;;;27.70;79.90;;;;;;5125533;28;20027;-54
2022/12/28 01:42:33;;;;;;;27.67;6.13;;;27.70;79.90;;;;;;5125609;28;20069;-54
2022/12/28 01:45:22;;;;;;;25.23;6.13;;;27.70;79.90;;;;;;5126335;28;20022;-54
2022/12/28 01:47:52;;;;;;;22.90;5.95;;;27.70;79.80;;;;;;5125426;28;20035;-58
2022/12/28 01:50:24;;;;;;;20.50;6.32;;;27.70;79.70;;;;;;5126091;28;20205;-55
2022/12/28 01:53:03;;;;;;;19.00;5.78;;;27.70;79.70;;;;;;5126141;28;20097;-56
2022/12/28 01:55:33;;;;;;;16.02;5.90;;;27.70;79.60;;;;;;5126023;28;20083;-55
2022/12/28 01:58:13;;;;;;;19.17;6.10;;;27.70;79.70;;;;;;5125430;28;20024;-55
2022/12/28 02:00:40;;;;;;;24.70;5.80;;;27.70;79.50;;;;;;5126112;28;20061;-54
2022/12/28 02:03:20;;;;;;;16.27;5.60;;;27.70;79.50;;;;;;5126319;28;20123;-54
2022/12/28 02:05:53;;;;;;;15.80;5.80;;;27.70;79.50;;;;;;5125941;28;20047;-55
2022/12/28 02:08:40;;;;;;;18.75;5.90;;;27.70;79.50;;;;;;5126156;28;20300;-55
2022/12/28 02:11:10;;;;;;;16.75;5.50;;;27.60;79.40;;;;;;5125684;28;20045;-55
2022/12/28 02:13:38;;;;;;;13.70;5.28;;;27.60;79.30;;;;;;5126177;28;20275;-55
2022/12/28 02:16:05;;;;;;;15.55;5.00;;;27.60;79.30;;;;;;5125565;28;20065;-55
2022/12/28 02:18:32;;;;;;;13.63;4.93;;;27.60;79.30;;;;;;5125977;28;20024;-54
2022/12/28 02:21:17;;;;;;;11.75;4.57;;;27.60;79.20;;;;;;5125605;28;20023;-54
2022/12/28 02:23:56;;;;;;;14.95;5.30;;;27.70;79.30;;;;;;5126088;28;20120;-56
2022/12/28 02:26:45;;;;;;;14.27;5.38;;;27.60;79.30;;;;;;5126202;28;20073;-60
2022/12/28 02:29:24;;;;;;;12.30;5.13;;;27.60;79.30;;;;;;5125826;28;20273;-56
2022/12/28 02:32:09;;;;;;;13.75;5.47;;;27.60;79.40;;;;;;5107661;28;20102;-56
2022/12/28 02:34:38;;;;;;;11.95;4.95;;;27.60;79.20;;;;;;5125301;28;20034;-55
2022/12/28 02:37:48;;;;;;;12.68;5.18;;;27.60;79.20;;;;;;5125347;28;20046;-55
2022/12/28 02:40:26;;;;;;;12.32;4.65;;;27.60;79.10;;;;;;5117469;28;20027;-57
2022/12/28 02:42:55;;;;;;;12.98;4.95;;;27.50;79.10;;;;;;5125432;28;20030;-55
2022/12/28 02:51:20;;;;;;;14.35;5.07;;;27.50;79.20;;;;;;5125468;28;20096;-52
2022/12/28 02:56:05;;;;;;;11.20;5.30;;;27.50;79.20;;;;;;5125515;28;20100;-54
2022/12/28 02:57:27;;;;;;;14.95;5.38;;;27.50;79.30;;;;;;5125038;28;20036;-51
2022/12/28 03:00:16;;;;;;;12.32;4.80;;;27.50;79.30;;;;;;5124786;28;20242;-61
2022/12/28 03:02:53;;;;;;;10.85;4.93;;;27.50;79.40;;;;;;5125184;28;20035;-58
2022/12/28 03:08:20;;;;;;;12.55;5.22;;;27.40;79.30;;;;;;5124953;28;20361;-63
2022/12/28 03:11:09;;;;;;;11.27;5.05;;;27.40;79.30;;;;;;5124481;28;20308;-63
2022/12/28 03:13:48;;;;;;;11.60;4.90;;;27.50;79.30;;;;;;5125156;28;20028;-64
2022/12/28 03:16:30;;;;;;;19.58;5.15;;;27.40;79.30;;;;;;5105584;28;20028;-55
2022/12/28 03:33:08;;;;;;;11.20;4.47;;;27.50;78.90;;;;;;5084551;28;20382;-56
2022/12/28 03:36:09;;;;;;;12.02;4.65;;;27.50;79.00;;;;;;5095813;28;20096;-57
2022/12/28 03:38:54;;;;;;;10.85;4.40;;;27.50;78.80;;;;;;5051024;28;20041;-55
2022/12/28 03:41:36;;;;;;;9.07;4.47;;;27.50;78.60;;;;;;5083547;28;20325;-54
2022/12/28 03:44:16;;;;;;;9.85;4.18;;;27.50;78.50;;;;;;5065756;28;20202;-55
2022/12/28 03:46:55;;;;;;;9.70;4.22;;;27.60;78.50;;;;;;5094544;28;20081;-55
2022/12/28 03:49:23;;;;;;;11.23;4.40;;;27.50;78.40;;;;;;5083606;28;20117;-56
2022/12/28 03:51:54;;;;;;;11.00;4.20;;;27.60;78.40;;;;;;5095770;28;20055;-54
2022/12/28 03:54:20;;;;;;;12.73;4.60;;;27.50;78.40;;;;;;5094062;28;20027;-54
2022/12/28 03:56:49;;;;;;;8.90;4.43;;;27.60;78.40;;;;;;5097610;28;20025;-55
2022/12/28 03:59:17;;;;;;;11.60;4.22;;;27.60;78.50;;;;;;5102239;28;20024;-54
2022/12/28 04:01:43;;;;;;;10.20;4.60;;;27.60;78.20;;;;;;5095443;28;20327;-54
2022/12/28 04:04:11;;;;;;;10.63;4.35;;;27.60;78.10;;;;;;5099395;28;20387;-55
2022/12/28 04:06:37;;;;;;;10.75;4.18;;;27.60;78.10;;;;;;5094791;28;20028;-55
2022/12/28 04:09:05;;;;;;;10.40;4.20;;;27.60;78.20;;;;;;5096246;28;20309;-55
2022/12/28 04:11:34;;;;;;;10.57;4.50;;;27.60;77.90;;;;;;5103363;28;20364;-54
2022/12/28 04:14:04;;;;;;;8.75;4.30;;;27.60;78.10;;;;;;5090309;28;20082;-60
2022/12/28 04:16:31;;;;;;;9.05;4.15;;;27.70;78.10;;;;;;5103576;28;20039;-54
2022/12/28 04:18:57;;;;;;;9.88;4.10;;;27.60;77.80;;;;;;5090836;28;20213;-54
2022/12/28 04:21:24;;;;;;;12.05;4.38;;;27.60;77.80;;;;;;5099268;28;20231;-57
2022/12/28 04:23:51;;;;;;;9.88;4.10;;;27.60;78.00;;;;;;5093952;28;20091;-55
2022/12/28 04:26:18;;;;;;;8.98;3.95;;;27.60;77.80;;;;;;5081531;28;20024;-54
2022/12/28 04:28:44;;;;;;;7.32;3.83;;;27.60;77.70;;;;;;5098488;28;20028;-54
2022/12/28 04:31:13;;;;;;;10.43;4.45;;;27.60;78.00;;;;;;5092852;28;20043;-54
2022/12/28 04:33:40;;;;;;;9.20;4.00;;;27.60;77.90;;;;;;5096333;28;20074;-55
2022/12/28 04:36:10;;;;;;;6.60;3.67;;;27.60;77.80;;;;;;5086611;28;20036;-56
2022/12/28 04:38:38;;;;;;;7.43;4.10;;;27.60;77.80;;;;;;5089341;28;20108;-56
2022/12/28 04:41:06;;;;;;;10.50;4.10;;;27.60;78.00;;;;;;5095064;28;20198;-56
2022/12/28 04:43:33;;;;;;;7.18;3.70;;;27.60;78.00;;;;;;5092794;28;20039;-55
2022/12/28 04:46:02;;;;;;;6.70;3.60;;;27.60;78.00;;;;;;5086803;28;20024;-55
2022/12/28 04:48:29;;;;;;;10.32;4.03;;;27.60;77.90;;;;;;5087131;28;20029;-52
2022/12/28 04:50:57;;;;;;;7.70;3.83;;;27.70;78.20;;;;;;5086363;28;20363;-55
2022/12/28 04:53:24;;;;;;;12.32;4.07;;;27.60;78.10;;;;;;5087003;28;20104;-54
2022/12/28 04:55:50;;;;;;;8.77;3.92;;;27.60;78.10;;;;;;5086523;28;20028;-55
2022/12/28 04:58:17;;;;;;;8.32;4.22;;;27.60;78.10;;;;;;5086852;28;20020;-54
2022/12/28 05:00:44;;;;;;;10.85;4.07;;;27.60;78.00;;;;;;5086490;28;20024;-54
2022/12/28 05:03:10;;;;;;;11.02;4.65;;;27.60;77.90;;;;;;5086656;28;20020;-54
2022/12/28 05:05:37;;;;;;;7.78;4.00;;;27.60;78.30;;;;;;5086527;28;20028;-55
2022/12/28 05:08:04;;;;;;;10.05;4.57;;;27.60;78.20;;;;;;5096492;28;20051;-54
2022/12/28 05:10:31;;;;;;;9.50;4.30;;;27.60;78.00;;;;;;5106784;28;20036;-54
2022/12/28 05:12:57;;;;;;;10.48;4.68;;;27.60;78.30;;;;;;5106721;28;20047;-56
2022/12/28 05:15:24;;;;;;;11.32;4.65;;;27.60;78.30;;;;;;5106534;28;20362;-54
2022/12/28 05:17:51;;;;;;;11.45;4.68;;;27.60;78.20;;;;;;5106817;28;20040;-54
2022/12/28 05:20:19;;;;;;;7.70;4.38;;;27.60;78.30;;;;;;5106718;28;20016;-55
2022/12/28 05:22:45;;;;;;;8.90;4.72;;;27.60;78.30;;;;;;5106743;28;20043;-57
2022/12/28 05:25:12;;;;;;;10.07;4.65;;;27.60;78.30;;;;;;5105130;28;20027;-58
2022/12/28 05:27:39;;;;;;;10.65;4.80;;;27.60;78.20;;;;;;5097923;28;20031;-54
2022/12/28 05:30:06;;;;;;;8.35;4.95;;;27.60;78.30;;;;;;5068117;28;20106;-55
2022/12/28 05:32:32;;;;;;;7.18;4.00;;;27.60;78.40;;;;;;5086106;28;20020;-55
2022/12/28 05:34:59;;;;;;;8.82;4.13;;;27.50;78.30;;;;;;5085622;28;20130;-56
2022/12/28 05:37:26;;;;;;;11.30;4.57;;;27.50;78.40;;;;;;5085980;28;20090;-55
2022/12/28 05:39:52;;;;;;;11.18;4.60;;;27.50;78.60;;;;;;5085848;28;20208;-57
2022/12/28 05:42:19;;;;;;;9.52;4.57;;;27.50;78.60;;;;;;5100213;28;20103;-55
2022/12/28 05:44:45;;;;;;;9.60;5.05;;;27.50;78.40;;;;;;5087190;28;20027;-55
2022/12/28 05:47:12;;;;;;;9.50;5.18;;;27.50;78.50;;;;;;5094825;28;20058;-54
2022/12/28 05:49:39;;;;;;;7.93;4.40;;;27.50;78.40;;;;;;5105532;28;20023;-55
2022/12/28 05:52:05;;;;;;;9.43;4.55;;;27.50;78.40;;;;;;5105815;28;20038;-54
2022/12/28 05:54:32;;;;;;;9.63;4.70;;;27.50;78.50;;;;;;5105632;28;20012;-55
2022/12/28 05:56:59;;;;;;;8.80;4.43;;;27.50;78.70;;;;;;5088190;28;20281;-52
2022/12/28 05:59:25;;;;;;;7.32;4.70;;;27.40;78.60;;;;;;5105678;28;20086;-54
2022/12/28 06:01:52;;;;;;;10.40;5.10;;;27.40;78.60;;;;;;5105652;28;20079;-53
2022/12/28 06:04:20;;;;;;;7.80;4.63;;;27.40;79.10;;;;;;5105507;28;20317;-49
2022/12/28 06:06:49;;;;;;;7.88;4.88;;;27.40;78.60;;;;;;5105386;28;20026;-56
2022/12/28 06:09:15;;;;;;;8.60;4.88;;;27.40;78.80;;;;;;5105466;28;20220;-53
2022/12/28 06:11:42;;;;;;;11.25;4.97;;;27.40;78.70;;;;;;5096131;28;20027;-53
2022/12/28 06:14:08;;;;;;;10.88;5.55;;;27.40;78.80;;;;;;5096209;28;20028;-54
2022/12/28 06:16:38;;;;;;;9.38;4.93;;;27.30;78.70;;;;;;5085027;28;20028;-51
2022/12/28 06:19:07;;;;;;;8.65;5.03;;;27.30;78.90;;;;;;5100071;28;20015;-47
2022/12/28 06:21:35;;;;;;;8.73;5.15;;;27.30;78.90;;;;;;5125714;28;20023;-51
2022/12/28 06:24:03;;;;;;;11.75;5.28;;;27.30;79.10;;;;;;5146281;27;20015;-51
2022/12/28 06:26:32;;;;;;;8.88;4.97;;;27.30;79.00;;;;;;5146042;27;20061;-53
2022/12/28 06:29:00;;;;;;;9.60;4.85;;;27.30;79.00;;;;;;5146657;27;20356;-53
2022/12/28 06:31:30;;;;;;;10.05;5.15;;;27.30;79.20;;;;;;5127768;27;20278;-53
2022/12/28 06:33:58;;;;;;;9.00;5.32;;;27.30;79.20;;;;;;5146384;27;20038;-53
2022/12/28 06:36:30;;;;;;;10.75;5.38;;;27.20;79.30;;;;;;5146109;27;20023;-53
2022/12/28 06:38:57;;;;;;;;;;;27.30;79.40;;;;;;5146887;27;20063;-53
2022/12/28 06:41:25;;;;;;;10.85;5.18;;;27.30;79.30;;;;;;5145733;27;19906;-51
2022/12/28 06:43:52;;;;;;;10.40;5.20;;;27.20;79.40;;;;;;5145869;27;20030;-51
2022/12/28 06:46:21;;;;;;;8.27;4.97;;;27.20;79.80;;;;;;5145781;27;20315;-56
2022/12/28 06:48:47;;;;;;;8.90;5.18;;;27.20;79.50;;;;;;5146126;27;20142;-53
2022/12/28 06:51:15;;;;;;;9.75;5.30;;;27.20;79.50;;;;;;5145516;27;20274;-53
2022/12/28 06:53:43;;;;;;;11.15;5.32;;;27.20;79.60;;;;;;5146152;27;20091;-55
2022/12/28 06:56:14;;;;;;;9.07;4.88;;;27.20;79.40;;;;;;5127570;27;20229;-55
2022/12/28 06:58:41;;;;;;;15.32;5.47;;;27.10;79.30;;;;;;5125481;28;20096;-54
2022/12/28 07:01:11;;;;;;;9.40;5.28;;;27.20;79.50;;;;;;5124982;28;20079;-54
2022/12/28 07:03:38;;;;;;;9.80;5.72;;;27.20;79.60;;;;;;5125402;28;20064;-54
2022/12/28 07:06:06;;;;;;;9.05;5.20;;;27.20;79.70;;;;;;5124808;28;20016;-54
2022/12/28 07:08:33;;;;;;;11.38;5.18;;;27.20;79.70;;;;;;5125167;28;20044;-55
2022/12/28 07:11:08;;;;;;;9.75;5.50;;;27.10;79.50;;;;;;5124797;28;20040;-54
2022/12/28 07:13:35;;;;;;;10.05;5.72;;;27.10;79.60;;;;;;5125271;28;20031;-55
2022/12/28 07:16:03;;;;;;;10.27;4.95;;;27.10;79.90;;;;;;5124548;28;20028;-53
2022/12/28 07:18:30;;;;;;;10.13;5.13;;;27.10;79.70;;;;;;5125084;28;20319;-52
2022/12/28 07:21:05;;;;;;;10.02;5.20;;;27.10;79.90;;;;;;5124657;28;20031;-53
2022/12/28 07:23:32;;;;;;;9.45;5.15;;;27.10;79.80;;;;;;5124937;28;20020;-52
2022/12/28 07:26:06;;;;;;;11.88;5.35;;;27.10;79.90;;;;;;5124681;28;20026;-52
2022/12/28 07:28:35;;;;;;;10.77;5.00;;;27.00;79.90;;;;;;5124867;28;20035;-56
2022/12/28 07:31:06;;;;;;;9.68;5.50;;;27.00;79.90;;;;;;5124580;28;20027;-52
2022/12/28 07:33:34;;;;;;;9.80;5.15;;;27.00;80.00;;;;;;5125062;28;20019;-52
2022/12/28 07:36:01;;;;;;;9.68;5.10;;;27.00;80.60;;;;;;5124260;28;20032;-53
2022/12/28 07:38:28;;;;;;;11.48;5.63;;;27.00;80.10;;;;;;5106175;28;20020;-53
2022/12/28 07:41:06;;;;;;;9.10;5.15;;;27.00;80.00;;;;;;5124431;28;20032;-54
2022/12/28 07:43:34;;;;;;;9.02;5.47;;;27.00;80.10;;;;;;5124588;28;20044;-55
2022/12/28 07:46:03;;;;;;;10.68;5.75;;;27.00;80.00;;;;;;5124309;28;20038;-53
2022/12/28 07:48:31;;;;;;;8.38;5.15;;;27.00;80.10;;;;;;5124809;28;20032;-50
2022/12/28 07:51:04;;;;;;;10.75;5.53;;;27.00;80.10;;;;;;5124158;28;20066;-53
2022/12/28 07:53:30;;;;;;;11.27;5.72;;;27.00;80.10;;;;;;5124691;28;20035;-54
2022/12/28 07:55:58;;;;;;;10.90;5.35;;;27.00;80.20;;;;;;5126412;28;20219;-54
2022/12/28 07:58:24;;;;;;;10.43;5.85;;;27.00;80.00;;;;;;5128957;28;20034;-54
2022/12/28 08:00:52;;;;;;;9.48;5.53;;;27.00;80.20;;;;;;5128499;28;20324;-56
2022/12/28 08:03:19;;;;;;;11.35;5.88;;;26.90;80.00;;;;;;5110359;28;20026;-55
2022/12/28 08:05:46;;;;;;;11.05;5.50;;;26.90;80.00;;;;;;5128361;28;20028;-55
2022/12/28 08:08:12;;;;;;;10.32;5.47;;;26.90;80.00;;;;;;5128630;28;20254;-60
2022/12/28 08:10:39;;;;;;;8.13;5.28;;;26.90;80.00;;;;;;5128153;28;20046;-61
2022/12/28 08:13:05;;;;;;;17.25;5.80;;;26.90;80.00;;;;;;5128497;28;20207;-64
2022/12/28 08:15:32;;;;;;;9.07;5.57;;;26.90;79.90;;;;;;5109892;28;20091;-64
2022/12/28 08:17:58;;;;;;;9.88;6.00;;;26.90;79.90;;;;;;5109957;28;20036;-64
2022/12/28 08:20:25;;;;;;;11.77;5.95;;;26.90;79.80;;;;;;5128158;28;20130;-54
2022/12/28 08:22:51;;;;;;;11.77;5.95;;;26.90;80.00;;;;;;5128059;28;20210;-56
2022/12/28 08:25:18;;;;;;;9.15;5.20;;;26.90;79.90;;;;;;5127940;28;20020;-55
2022/12/28 08:27:44;;;;;;;11.23;5.78;;;26.80;80.00;;;;;;5128066;28;20203;-55
2022/12/28 08:30:12;;;;;;;10.73;5.82;;;26.80;80.20;;;;;;5127845;28;20035;-55
2022/12/28 08:32:38;;;;;;;11.88;5.88;;;26.90;80.30;;;;;;5128066;28;20050;-56
2022/12/28 08:35:05;;;;;;;8.98;5.63;;;26.80;80.20;;;;;;5127556;28;20339;-54
2022/12/28 08:37:31;;;;;;;9.68;5.13;;;26.80;80.40;;;;;;5119764;28;20312;-54
2022/12/28 08:39:58;;;;;;;9.90;5.63;;;26.80;80.30;;;;;;5107323;28;20347;-54
2022/12/28 08:42:24;;;;;;;9.18;5.68;;;26.80;80.40;;;;;;5107239;28;20028;-52
2022/12/28 08:44:51;;;;;;;10.25;5.30;;;26.80;80.60;;;;;;5107255;28;20012;-53
2022/12/28 08:47:17;;;;;;;7.80;5.45;;;26.80;80.70;;;;;;5107211;28;20327;-57
2022/12/28 08:49:44;;;;;;;9.93;5.82;;;26.80;80.80;;;;;;5106718;28;20016;-54
2022/12/28 08:52:10;;;;;;;9.23;5.50;;;26.80;80.80;;;;;;5105634;28;20120;-54
2022/12/28 08:54:37;;;;;;;10.77;6.10;;;26.70;80.90;;;;;;5105561;28;20020;-57
2022/12/28 08:57:04;;;;;;;9.63;5.80;;;26.70;80.90;;;;;;5105557;28;20063;-55
2022/12/28 08:59:30;;;;;;;13.98;5.30;;;26.70;81.00;;;;;;5105796;28;20027;-55
2022/12/28 09:01:57;;;;;;;9.85;5.53;;;26.70;80.80;;;;;;5105587;28;20196;-56
2022/12/28 09:04:23;;;;;;;9.57;5.80;;;26.70;80.80;;;;;;5105398;28;20302;-55
2022/12/28 09:06:50;;;;;;;10.57;5.95;;;26.70;81.10;;;;;;5105192;28;20019;-56
2022/12/28 09:09:18;;;;;;;10.57;5.80;;;26.70;81.00;;;;;;5105489;28;20092;-57
2022/12/28 09:11:45;;;;;;;11.23;6.13;;;26.70;81.00;;;;;;5105162;28;20012;-54
2022/12/28 09:14:14;;;;;;;10.25;5.55;;;26.70;81.10;;;;;;5105130;28;20027;-53
2022/12/28 09:16:40;;;;;;;9.73;5.82;;;26.70;81.20;;;;;;5105330;28;20036;-57
2022/12/28 09:19:11;;;;;;;12.23;5.80;;;26.60;81.10;;;;;;5105228;28;20020;-54
2022/12/28 09:21:38;;;;;;;12.15;6.32;;;26.70;81.20;;;;;;5105306;28;20320;-56
2022/12/28 09:24:05;;;;;;;12.80;6.10;;;26.60;81.20;;;;;;5105287;28;20042;-53
2022/12/28 09:26:35;;;;;;;10.43;6.10;;;26.70;81.30;;;;;;5105076;28;20141;-53
2022/12/28 09:29:04;;;;;;;11.35;6.60;;;26.70;81.50;;;;;;5105126;28;20279;-56
2022/12/28 09:31:35;;;;;;;12.13;6.35;;;26.60;81.40;;;;;;5104774;28;20354;-54
2022/12/28 09:34:04;;;;;;;9.95;5.82;;;26.60;81.50;;;;;;5096889;28;20275;-52
2022/12/28 09:36:42;;;;;;;12.18;5.93;;;26.60;81.40;;;;;;5125308;28;20035;-52
2022/12/28 09:39:15;;;;;;;13.85;5.75;;;26.60;81.60;;;;;;5125350;28;20023;-51
2022/12/28 09:42:11;;;;;;;10.13;5.93;;;26.60;81.60;;;;;;5125455;28;20079;-53
2022/12/28 09:44:47;;;;;;;14.00;6.38;;;26.60;81.90;;;;;;5112216;28;20069;-53
2022/12/28 09:47:46;;;;;;;12.32;5.93;;;26.60;81.90;;;;;;5125430;28;20019;-52
2022/12/28 09:50:15;;;;;;;10.43;6.18;;;26.60;82.00;;;;;;5034280;28;2570644;-52
2022/12/28 09:52:57;;;;;;;11.90;5.97;;;26.60;82.10;;;;;;5126488;28;20088;-50
2022/12/28 09:55:24;;;;;;;12.35;5.47;;;26.60;82.20;;;;;;5126168;28;20031;-52
2022/12/28 09:57:58;;;;;;;13.55;6.00;;;26.60;82.20;;;;;;5126133;28;20357;-54
2022/12/28 10:00:49;;;;;;;11.80;5.82;;;26.60;82.10;;;;;;5114566;28;20038;-53
2022/12/28 10:03:19;;;;;;;12.93;5.75;;;26.60;82.20;;;;;;5115390;28;20042;-55
2022/12/28 10:05:46;;;;;;;11.07;5.50;;;26.60;82.20;;;;;;5126061;28;20260;-54
2022/12/28 10:08:21;;;;;;;11.52;6.25;;;26.50;82.20;;;;;;5125857;28;20059;-54
2022/12/28 10:10:49;;;;;;;11.98;5.93;;;26.60;82.30;;;;;;5125800;28;20034;-52
2022/12/28 10:13:28;;;;;;;13.25;5.80;;;26.50;82.30;;;;;;5126198;28;20322;-52
2022/12/28 10:15:56;;;;;;;14.75;5.82;;;26.50;82.40;;;;;;5125571;28;20031;-51
2022/12/28 10:18:25;;;;;;;15.30;5.43;;;26.50;82.40;;;;;;5106920;28;20091;-52
2022/12/28 10:20:52;;;;;;;15.35;5.88;;;26.50;82.20;;;;;;5125727;28;20331;-53
2022/12/28 10:23:23;;;;;;;13.43;5.82;;;26.50;82.30;;;;;;5125980;28;20027;-54
2022/12/28 10:25:54;;;;;;;11.23;5.68;;;26.50;82.20;;;;;;5125678;28;20035;-54
2022/12/28 10:28:26;;;;;;;14.37;5.97;;;26.50;82.30;;;;;;5126067;28;20031;-56
2022/12/28 10:31:08;;;;;;;18.30;6.68;;;26.40;82.30;;;;;;5125344;28;20058;-54
2022/12/28 10:33:49;;;;;;;11.05;5.45;;;26.40;82.30;;;;;;5125924;28;20028;-53
2022/12/28 10:36:17;;;;;;;13.13;5.70;;;26.40;82.40;;;;;;5125431;28;20088;-58
2022/12/28 10:38:53;;;;;;;11.40;5.90;;;26.40;82.40;;;;;;5125871;28;20039;-58
2022/12/28 10:41:20;;;;;;;16.65;6.00;;;26.40;82.60;;;;;;5125186;28;20065;-58
2022/12/28 10:43:52;;;;;;;13.45;6.53;;;26.40;82.60;;;;;;5107237;28;20020;-57
2022/12/28 10:46:23;;;;;;;18.30;6.47;;;26.40;82.60;;;;;;5107156;28;20285;-54
2022/12/28 10:48:54;;;;;;;14.65;6.20;;;26.40;82.70;;;;;;5125732;28;20193;-56
2022/12/28 10:51:24;;;;;;;17.52;6.20;;;26.30;82.70;;;;;;5124259;28;20240;-58
2022/12/28 10:53:55;;;;;;;20.70;7.00;;;26.30;82.80;;;;;;5124506;28;20087;-56
2022/12/28 10:56:32;;;;;;;18.48;7.22;;;26.30;82.70;;;;;;5124726;28;20096;-60
2022/12/28 10:59:10;;;;;;;22.52;6.82;;;26.30;82.90;;;;;;5125556;28;20185;-57
2022/12/28 11:01:37;;;;;;;21.33;7.43;;;26.30;82.90;;;;;;5124991;28;20107;-53
2022/12/28 11:04:26;;;;;;;17.50;7.53;;;26.30;83.00;;;;;;5124802;28;20024;-55
2022/12/28 11:06:55;;;;;;;28.30;8.15;;;26.30;82.90;;;;;;5124427;28;20039;-58
2022/12/28 11:09:24;;;;;;;22.92;8.75;;;26.30;82.90;;;;;;5124768;28;20062;-55
2022/12/28 11:12:11;;;;;;;25.52;8.15;;;26.30;83.00;;;;;;5106393;28;20254;-56
2022/12/28 11:14:38;;;;;;;22.92;8.52;;;26.30;83.60;;;;;;5124661;28;20027;-54
2022/12/28 11:17:24;;;;;;;24.20;8.45;;;26.30;83.10;;;;;;5124703;28;20032;-55
2022/12/28 11:19:56;;;;;;;24.92;7.65;;;26.30;83.20;;;;;;5124639;28;20031;-55
2022/12/28 11:22:27;;;;;;;27.27;7.75;;;26.30;83.20;;;;;;5124619;28;20035;-54
2022/12/28 11:24:55;;;;;;;22.50;7.82;;;26.30;83.10;;;;;;5124668;28;20099;-55
2022/12/28 11:27:22;;;;;;;33.70;7.05;;;26.30;83.00;;;;;;5124628;28;20027;-55
2022/12/28 11:29:51;;;;;;;26.25;7.45;;;26.30;83.10;;;;;;5124254;28;20023;-54
2022/12/28 11:32:26;;;;;;;23.65;7.10;;;26.30;83.10;;;;;;5124734;28;20028;-54
2022/12/28 11:34:55;;;;;;;30.55;8.30;;;26.30;83.20;;;;;;5124206;28;20037;-55
2022/12/28 11:37:21;;;;;;;37.92;9.32;;;26.30;83.40;;;;;;5123796;28;20023;-56
2022/12/28 11:39:50;;;;;;;35.40;9.70;;;26.30;83.40;;;;;;5124536;28;20035;-57
2022/12/28 11:42:31;;;;;;;34.65;10.25;;;26.30;83.40;;;;;;5123717;28;20020;-56
2022/12/28 11:45:00;;;;;;;29.20;10.68;;;26.40;83.60;;;;;;5122233;28;20100;-54
2022/12/28 11:47:32;;;;;;;28.30;10.57;;;26.40;83.50;;;;;;5124429;28;20031;-54
2022/12/28 11:50:38;;;;;;;40.60;11.15;;;26.40;83.60;;;;;;5122608;28;20068;-54
2022/12/28 11:53:30;;;;;;;37.15;11.43;;;26.40;83.60;;;;;;5124558;28;20040;-56
2022/12/28 11:56:05;;;;;;;30.95;12.25;;;26.40;83.60;;;;;;5111059;28;20104;-55
2022/12/28 11:58:34;;;;;;;30.63;10.85;;;26.40;83.60;;;;;;5124602;28;20042;-56
2022/12/28 12:01:03;;;;;;;44.10;10.93;;;26.40;83.60;;;;;;5124183;28;20028;-53
2022/12/28 12:03:58;;;;;;;38.50;10.88;;;26.50;83.70;;;;;;5124513;28;20020;-53
2022/12/28 12:06:47;;;;;;;36.20;10.40;;;26.50;83.70;;;;;;5105887;28;20066;-53
2022/12/28 12:09:37;;;;;;;34.47;10.07;;;26.50;83.70;;;;;;5116208;28;20068;-53
2022/12/28 12:12:29;;;;;;;24.08;9.57;;;26.60;83.80;;;;;;5124026;28;20323;-52
2022/12/28 12:15:11;;;;;;;29.05;9.25;;;26.60;83.40;;;;;;5105149;28;20051;-53
2022/12/28 12:18:06;;;;;;;34.40;15.23;;;26.60;83.30;;;;;;5124252;28;20023;-56
2022/12/28 12:20:53;;;;;;;80.47;33.80;;;26.60;83.30;;;;;;5124171;28;20032;-55
2022/12/28 12:23:25;;;;;;;80.43;32.92;;;26.60;83.20;;;;;;5124134;28;20015;-56
2022/12/28 12:25:55;;;;;;;78.43;34.75;;;26.70;83.20;;;;;;5123331;28;20039;-56
2022/12/28 12:28:38;;;;;;;151.20;72.55;;;26.70;83.10;;;;;;5124143;28;20047;-53
2022/12/28 12:31:11;;;;;;;120.88;61.22;;;26.80;83.30;;;;;;5122505;28;20039;-63
2022/12/28 12:33:43;;;;;;;104.88;50.45;;;26.80;83.20;;;;;;5124094;28;20047;-54
2022/12/28 12:36:28;;;;;;;102.20;48.05;;;26.80;83.00;;;;;;5123794;28;20027;-53
2022/12/28 12:38:58;;;;;;;82.80;39.42;;;26.80;83.20;;;;;;5123864;28;20069;-60
2022/12/28 12:41:29;;;;;;;71.57;35.63;;;26.90;82.90;;;;;;5125027;28;20084;-60
2022/12/28 12:44:18;;;;;;;73.10;34.20;;;26.90;82.90;;;;;;5128154;28;20031;-53
2022/12/28 12:47:06;;;;;;;78.47;32.65;;;26.90;82.90;;;;;;5125616;28;20031;-54
2022/12/28 12:49:42;;;;;;;72.63;31.38;;;26.90;82.80;;;;;;5106664;28;20369;-55
2022/12/28 12:52:32;;;;;;;64.78;29.75;;;27.00;82.90;;;;;;5106878;28;20077;-54
2022/12/28 12:55:17;;;;;;;61.50;27.77;;;27.00;82.70;;;;;;5076769;28;20040;-53
2022/12/28 12:58:02;;;;;;;59.88;26.58;;;27.00;82.80;;;;;;5107058;28;20054;-54
2022/12/28 13:00:33;;;;;;;55.35;24.80;;;27.10;82.80;;;;;;5106869;28;20027;-51
2022/12/28 13:03:18;;;;;;;53.08;22.90;;;27.10;82.70;;;;;;5107101;28;20066;-52
2022/12/28 13:05:57;;;;;;;51.88;22.25;;;27.10;82.60;;;;;;5106157;28;20085;-55
2022/12/28 13:08:48;;;;;;;42.75;20.38;;;27.20;82.60;;;;;;5106507;28;20035;-52
2022/12/28 13:11:17;;;;;;;44.60;19.73;;;27.20;82.50;;;;;;5088563;28;20104;-53
2022/12/28 13:13:49;;;;;;;36.03;17.40;;;27.30;82.40;;;;;;5106899;28;20327;-52
2022/12/28 13:16:17;;;;;;;;;;;27.30;82.50;;;;;;5106881;28;20043;-55
2022/12/28 13:19:00;;;;;;;33.70;15.57;;;27.30;82.50;;;;;;5107055;28;19911;-54
2022/12/28 13:21:38;;;;;;;36.58;14.98;;;27.30;83.10;;;;;;5107255;28;20026;-57
2022/12/28 13:24:38;;;;;;;30.10;13.60;;;27.30;83.00;;;;;;5106490;28;20032;-55